Time;durP1;ratioP1;P1;durP2;ratioP2;P2;SDS_P1;SDS_P2;PMS_P1;PMS_P2;Temp;Humidity;BMP_temperature;BMP_pressure;BME280_temperature;BME280_humidity;BME280_pressure;Samples;Min_cycle;Max_cycle;Signal;HPM_P1;HPM_P2
2022/08/16 00:01:37;;;;;;;2.83;2.15;;;17.60;99.90;;;;;;6082309;23;20533;-81
2022/08/16 00:04:07;;;;;;;1.92;1.83;;;17.60;99.90;;;;;;6082975;23;20029;-82
2022/08/16 00:06:37;;;;;;;2.47;1.40;;;17.60;99.90;;;;;;6060457;23;20031;-82
2022/08/16 00:09:06;;;;;;;1.77;1.65;;;17.50;99.90;;;;;;6090050;23;20031;-81
2022/08/16 00:11:39;;;;;;;2.17;1.40;;;17.50;99.90;;;;;;6070463;23;20019;-81
2022/08/16 00:14:11;;;;;;;1.35;1.25;;;17.50;99.90;;;;;;6062449;23;20586;-81
2022/08/16 00:16:39;;;;;;;2.55;1.90;;;17.50;99.90;;;;;;6059007;23;20019;-81
2022/08/16 00:19:30;;;;;;;2.40;1.75;;;17.40;99.90;;;;;;6110397;23;20462;-81
2022/08/16 00:22:09;;;;;;;1.80;1.38;;;17.30;99.90;;;;;;6060483;23;20051;-81
2022/08/16 00:24:43;;;;;;;4.40;1.85;;;17.20;99.90;;;;;;6067896;23;20023;-81
2022/08/16 00:27:16;;;;;;;8.05;2.20;;;17.10;99.90;;;;;;6070153;23;20026;-81
2022/08/16 00:29:44;;;;;;;2.10;1.85;;;17.10;99.90;;;;;;6065073;23;20030;-81
2022/08/16 00:32:13;;;;;;;2.35;1.30;;;17.10;99.90;;;;;;6092202;23;20019;-81
2022/08/16 00:34:45;;;;;;;3.78;1.65;;;17.10;99.90;;;;;;6081346;22;20027;-81
2022/08/16 00:37:23;;;;;;;2.30;2.20;;;17.00;99.90;;;;;;6064750;23;20031;-81
2022/08/16 00:40:18;;;;;;;2.30;1.70;;;17.00;99.90;;;;;;6069728;23;20023;-81
2022/08/16 00:43:22;;;;;;;2.20;1.95;;;16.90;99.90;;;;;;6060108;22;20027;-81
2022/08/16 00:46:09;;;;;;;3.42;1.60;;;16.90;99.90;;;;;;6034771;23;20038;-81
2022/08/16 00:48:57;;;;;;;1.75;1.65;;;16.90;99.90;;;;;;6082142;22;20022;-81
2022/08/16 00:51:27;;;;;;;2.50;1.98;;;16.90;99.90;;;;;;6045253;23;20443;-81
2022/08/16 00:53:56;;;;;;;2.15;1.95;;;16.90;99.90;;;;;;6064390;23;20023;-81
2022/08/16 00:56:30;;;;;;;1.80;1.48;;;16.90;99.90;;;;;;6070035;23;20741;-81
2022/08/16 00:59:20;;;;;;;1.75;1.65;;;16.80;99.90;;;;;;6090287;23;20060;-81
2022/08/16 01:01:51;;;;;;;1.98;1.88;;;16.70;99.90;;;;;;6064426;23;20031;-81
2022/08/16 01:04:24;;;;;;;3.33;2.35;;;16.70;99.90;;;;;;6069590;23;20011;-81
2022/08/16 01:07:04;;;;;;;2.05;1.85;;;16.60;99.90;;;;;;6012854;23;20042;-81
2022/08/16 01:09:37;;;;;;;2.38;2.05;;;16.60;99.90;;;;;;6065382;23;20492;-82
2022/08/16 01:12:10;;;;;;;2.55;1.95;;;16.60;99.90;;;;;;6045899;23;20026;-83
2022/08/16 01:14:57;;;;;;;2.58;2.00;;;16.50;99.90;;;;;;6060263;22;20034;-82
2022/08/16 01:17:26;;;;;;;2.35;1.38;;;16.40;99.90;;;;;;6064148;23;20351;-81
2022/08/16 01:20:06;;;;;;;1.67;1.58;;;16.50;99.90;;;;;;6068331;23;20023;-82
2022/08/16 01:23:06;;;;;;;2.53;2.33;;;16.60;99.90;;;;;;6015137;23;20030;-81
2022/08/16 01:25:41;;;;;;;;;;;16.60;99.90;;;;;;6067464;23;20038;-81
2022/08/16 01:28:14;;;;;;;2.08;1.65;;;16.60;99.90;;;;;;6068827;23;19921;-81
2022/08/16 01:30:52;;;;;;;2.10;1.77;;;16.60;99.90;;;;;;6012864;23;20038;-81
2022/08/16 01:33:22;;;;;;;1.83;1.73;;;16.60;99.90;;;;;;6042750;23;20050;-81
2022/08/16 01:35:51;;;;;;;;;;;16.60;99.90;;;;;;6093539;23;20025;-81
2022/08/16 01:38:28;;;;;;;1.92;1.70;;;16.50;99.90;;;;;;6061447;23;19929;-81
2022/08/16 01:41:04;;;;;;;2.42;1.90;;;16.40;99.90;;;;;;6034937;23;20061;-81
2022/08/16 01:43:36;;;;;;;2.35;1.92;;;16.30;99.90;;;;;;6068896;23;20023;-81
2022/08/16 01:46:16;;;;;;;3.95;1.63;;;16.40;99.90;;;;;;6034863;23;20030;-81
2022/08/16 01:49:15;;;;;;;2.70;2.10;;;16.30;99.90;;;;;;6082258;23;20419;-81
2022/08/16 01:51:50;;;;;;;2.17;1.58;;;16.30;99.90;;;;;;6011963;23;20027;-81
2022/08/16 01:54:25;;;;;;;1.88;1.77;;;16.30;99.90;;;;;;6035046;23;20038;-80
2022/08/16 01:56:58;;;;;;;3.47;1.40;;;16.30;99.90;;;;;;6067300;23;20632;-81
2022/08/16 01:59:28;;;;;;;2.67;1.90;;;16.30;99.90;;;;;;6043470;23;20337;-81
2022/08/16 02:01:57;;;;;;;2.53;2.33;;;16.30;99.90;;;;;;6062962;23;20458;-81
2022/08/16 02:04:31;;;;;;;5.55;2.10;;;16.30;99.90;;;;;;6012917;23;20656;-81
2022/08/16 02:07:23;;;;;;;5.28;1.83;;;16.30;99.90;;;;;;6090643;23;20031;-81
2022/08/16 02:09:52;;;;;;;3.13;2.25;;;16.20;99.90;;;;;;6087193;23;20042;-81
2022/08/16 02:12:29;;;;;;;2.20;1.98;;;16.20;99.90;;;;;;6047052;23;20027;-81
2022/08/16 02:15:26;;;;;;;2.92;2.08;;;16.20;99.90;;;;;;6190289;23;20042;-82
2022/08/16 02:17:57;;;;;;;4.82;2.95;;;16.20;99.90;;;;;;6064623;23;20042;-81
2022/08/16 02:20:38;;;;;;;2.15;1.95;;;16.20;99.90;;;;;;6092778;23;20019;-81
2022/08/16 02:23:13;;;;;;;2.75;1.90;;;16.20;99.90;;;;;;6035906;23;20034;-81
2022/08/16 02:25:45;;;;;;;7.38;3.03;;;16.20;99.90;;;;;;6065720;23;20045;-81
2022/08/16 02:28:22;;;;;;;3.30;3.00;;;16.20;99.90;;;;;;6082965;23;20022;-81
2022/08/16 02:30:53;;;;;;;2.28;2.08;;;16.20;99.90;;;;;;6059767;23;20026;-81
2022/08/16 02:33:24;;;;;;;3.13;1.90;;;16.20;99.90;;;;;;6065379;23;20030;-81
2022/08/16 02:36:19;;;;;;;3.22;2.22;;;16.20;99.90;;;;;;6058830;23;20023;-81
2022/08/16 02:39:10;;;;;;;1.75;1.65;;;16.20;99.90;;;;;;6081835;23;20031;-82
2022/08/16 02:41:44;;;;;;;1.88;1.77;;;16.20;99.90;;;;;;6034824;23;20027;-82
2022/08/16 02:44:20;;;;;;;3.08;1.88;;;16.10;99.90;;;;;;6068781;23;20019;-81
2022/08/16 02:46:50;;;;;;;5.38;2.47;;;16.10;99.90;;;;;;6036486;23;20031;-81
2022/08/16 02:49:22;;;;;;;3.00;2.72;;;15.90;99.90;;;;;;6058445;23;20803;-81
2022/08/16 02:52:11;;;;;;;2.15;1.95;;;15.80;99.90;;;;;;6092455;23;20326;-81
2022/08/16 02:54:54;;;;;;;3.38;2.55;;;15.90;99.90;;;;;;6059131;23;20496;-80
2022/08/16 02:57:24;;;;;;;3.50;2.20;;;15.80;99.90;;;;;;6058815;23;20035;-81
2022/08/16 02:59:53;;;;;;;3.90;2.88;;;15.70;99.90;;;;;;6066620;23;20481;-81
2022/08/16 03:02:21;;;;;;;2.50;2.03;;;15.80;99.90;;;;;;6062517;23;20034;-81
2022/08/16 03:05:03;;;;;;;2.40;2.20;;;15.80;99.90;;;;;;6066296;23;20034;-81
2022/08/16 03:07:31;;;;;;;5.00;3.13;;;15.80;99.90;;;;;;6092108;23;20014;-81
2022/08/16 03:10:07;;;;;;;2.70;2.28;;;15.80;99.90;;;;;;6063054;22;20031;-80
2022/08/16 03:12:42;;;;;;;2.35;2.15;;;15.70;99.90;;;;;;6058498;23;20022;-81
2022/08/16 03:15:35;;;;;;;3.05;2.03;;;15.70;99.90;;;;;;6092590;23;20019;-81
2022/08/16 03:18:04;;;;;;;1.88;1.77;;;15.70;99.90;;;;;;6061852;23;20027;-80
2022/08/16 03:20:48;;;;;;;2.50;2.30;;;15.80;99.90;;;;;;6047056;23;20019;-81
2022/08/16 03:23:22;;;;;;;3.40;3.08;;;15.80;99.90;;;;;;6082576;23;20023;-81
2022/08/16 03:25:51;;;;;;;2.78;2.42;;;15.80;99.90;;;;;;6087267;22;20496;-81
2022/08/16 03:28:22;;;;;;;4.45;1.65;;;15.90;99.90;;;;;;6067865;23;20015;-80
2022/08/16 03:30:51;;;;;;;3.15;2.85;;;15.90;99.90;;;;;;6034703;23;20403;-80
2022/08/16 03:33:23;;;;;;;2.30;2.10;;;15.90;99.90;;;;;;6082085;22;20022;-81
2022/08/16 03:35:58;;;;;;;;;;;15.80;99.90;;;;;;6069713;23;20014;-81
2022/08/16 03:38:47;;;;;;;2.83;2.63;;;15.80;99.90;;;;;;6058766;23;19928;-80
2022/08/16 03:41:17;;;;;;;2.70;2.50;;;15.80;99.90;;;;;;6082160;22;20035;-80
2022/08/16 03:44:01;;;;;;;2.15;2.05;;;15.80;99.90;;;;;;6034826;23;20029;-80
2022/08/16 03:46:36;;;;;;;2.20;2.00;;;15.60;99.90;;;;;;6084235;23;20035;-80
2022/08/16 03:49:19;;;;;;;2.60;2.40;;;15.50;99.90;;;;;;6064636;23;20476;-81
2022/08/16 03:51:50;;;;;;;3.30;2.85;;;15.50;99.90;;;;;;6082529;23;20877;-81
2022/08/16 03:54:26;;;;;;;2.85;2.55;;;15.40;99.90;;;;;;6082143;23;20027;-80
2022/08/16 03:56:55;;;;;;;3.22;2.92;;;15.40;99.90;;;;;;6082299;22;20034;-80
2022/08/16 03:59:28;;;;;;;4.35;3.10;;;15.40;99.90;;;;;;6065950;23;20813;-80
2022/08/16 04:01:59;;;;;;;2.25;2.03;;;15.40;99.90;;;;;;6081464;23;20019;-80
2022/08/16 04:04:30;;;;;;;;;;;15.40;99.90;;;;;;6083132;23;20019;-81
2022/08/16 04:07:03;;;;;;;2.67;2.17;;;15.30;99.90;;;;;;6033676;23;19921;-81
2022/08/16 04:09:35;;;;;;;3.97;2.13;;;15.30;99.90;;;;;;6081470;23;20042;-81
2022/08/16 04:12:07;;;;;;;4.05;2.58;;;15.40;99.90;;;;;;6034951;23;20015;-81
2022/08/16 04:15:32;;;;;;;3.47;1.92;;;15.40;99.90;;;;;;6033754;23;20508;-81
2022/08/16 04:18:21;;;;;;;3.90;2.28;;;15.40;99.90;;;;;;6077087;23;20037;-80
2022/08/16 04:20:50;;;;;;;3.22;2.92;;;15.30;99.90;;;;;;6066599;22;20015;-80
2022/08/16 04:23:24;;;;;;;2.92;2.63;;;15.20;99.90;;;;;;6057836;23;20019;-80
2022/08/16 04:25:57;;;;;;;2.80;2.60;;;15.10;99.90;;;;;;6033973;23;20328;-80
2022/08/16 04:28:31;;;;;;;2.47;2.08;;;15.00;99.90;;;;;;6058033;23;20048;-81
2022/08/16 04:31:19;;;;;;;2.50;2.30;;;15.00;99.90;;;;;;6065844;23;20037;-81
2022/08/16 04:33:47;;;;;;;3.35;3.03;;;15.00;99.90;;;;;;6062695;23;20346;-81
2022/08/16 04:36:21;;;;;;;1.88;1.63;;;15.00;99.90;;;;;;6045456;23;20026;-81
2022/08/16 04:38:50;;;;;;;3.22;2.47;;;15.00;99.90;;;;;;6081766;22;20030;-80
2022/08/16 04:41:19;;;;;;;2.53;2.33;;;15.00;99.90;;;;;;6057564;23;20058;-81
2022/08/16 04:44:01;;;;;;;2.95;2.17;;;15.00;99.90;;;;;;6013454;23;20019;-80
2022/08/16 04:46:49;;;;;;;2.28;2.08;;;15.00;99.90;;;;;;6058599;23;20027;-81
2022/08/16 04:49:37;;;;;;;2.17;1.98;;;14.90;99.90;;;;;;6062910;23;20699;-80
2022/08/16 04:52:14;;;;;;;2.00;1.90;;;14.80;99.90;;;;;;6034039;23;20036;-80
2022/08/16 04:55:08;;;;;;;3.38;2.15;;;14.70;99.90;;;;;;6080845;22;20107;-77
2022/08/16 04:57:40;;;;;;;4.72;3.05;;;14.60;99.90;;;;;;6061507;23;20370;-77
2022/08/16 05:00:14;;;;;;;3.33;3.03;;;14.60;99.90;;;;;;6064394;23;20022;-80
2022/08/16 05:03:07;;;;;;;2.28;2.05;;;14.60;99.90;;;;;;6082491;22;20033;-80
2022/08/16 05:05:44;;;;;;;4.22;2.33;;;14.60;99.90;;;;;;6064143;23;20027;-80
2022/08/16 05:08:31;;;;;;;2.45;2.25;;;14.60;99.90;;;;;;6068502;23;20454;-80
2022/08/16 05:11:13;;;;;;;2.67;2.35;;;14.50;99.90;;;;;;6115273;23;20030;-80
2022/08/16 05:13:46;;;;;;;4.03;2.28;;;14.50;99.90;;;;;;6084653;23;20327;-80
2022/08/16 05:16:28;;;;;;;3.08;2.17;;;14.60;99.90;;;;;;6074006;23;20029;-81
2022/08/16 05:19:07;;;;;;;2.72;2.53;;;14.60;99.90;;;;;;6061644;23;20019;-80
2022/08/16 05:21:50;;;;;;;3.63;3.33;;;14.70;99.90;;;;;;6017889;23;20034;-81
2022/08/16 05:24:18;;;;;;;3.08;2.28;;;14.80;99.90;;;;;;6072378;23;20446;-80
2022/08/16 05:26:53;;;;;;;2.22;2.03;;;14.80;99.90;;;;;;6062674;23;20030;-81
2022/08/16 05:29:23;;;;;;;4.53;4.07;;;15.10;99.90;;;;;;6038113;23;20027;-80
2022/08/16 05:32:15;;;;;;;3.25;2.95;;;15.30;99.90;;;;;;6071506;23;20015;-80
2022/08/16 05:35:06;;;;;;;2.75;2.47;;;15.50;99.90;;;;;;6082310;22;20033;-81
2022/08/16 05:37:41;;;;;;;4.75;3.20;;;15.70;99.90;;;;;;6063700;23;20031;-81
2022/08/16 05:40:13;;;;;;;;;;;16.00;99.90;;;;;;6085859;23;20019;-81
2022/08/16 05:42:42;;;;;;;3.70;3.28;;;16.20;99.90;;;;;;6082018;22;19922;-80
2022/08/16 05:45:14;;;;;;;3.80;2.78;;;16.50;99.90;;;;;;6011918;23;20027;-80
2022/08/16 05:47:48;;;;;;;3.00;2.67;;;16.70;99.90;;;;;;6046063;23;20011;-80
2022/08/16 05:50:28;;;;;;;2.60;2.20;;;16.80;99.90;;;;;;6058651;23;20034;-81
2022/08/16 05:53:02;;;;;;;2.15;1.98;;;16.90;99.90;;;;;;6012372;23;20035;-81
2022/08/16 05:55:34;;;;;;;3.15;2.95;;;16.90;99.90;;;;;;6082738;23;20366;-81
2022/08/16 05:58:08;;;;;;;3.72;2.90;;;16.90;99.90;;;;;;6085615;22;20465;-80
2022/08/16 06:00:55;;;;;;;3.03;2.72;;;17.00;99.90;;;;;;6061924;23;20335;-79
2022/08/16 06:03:24;;;;;;;2.45;2.25;;;17.00;99.90;;;;;;6068403;23;20022;-80
2022/08/16 06:05:59;;;;;;;3.30;2.92;;;17.00;99.90;;;;;;6086683;22;20023;-79
2022/08/16 06:08:28;;;;;;;3.72;2.83;;;17.10;99.90;;;;;;6067992;23;20469;-79
2022/08/16 06:11:01;;;;;;;5.72;2.42;;;17.10;99.90;;;;;;6058487;23;20038;-80
2022/08/16 06:14:10;;;;;;;2.45;2.33;;;17.20;99.90;;;;;;6087971;22;20663;-80
2022/08/16 06:16:42;;;;;;;6.78;2.17;;;17.20;99.90;;;;;;6067727;23;20447;-79
2022/08/16 06:19:11;;;;;;;3.45;3.15;;;17.20;99.90;;;;;;6068094;23;20056;-80
2022/08/16 06:21:46;;;;;;;2.28;1.95;;;17.20;99.90;;;;;;6040323;23;20031;-80
2022/08/16 06:24:21;;;;;;;3.90;3.00;;;17.20;99.90;;;;;;6034845;23;20019;-80
2022/08/16 06:27:10;;;;;;;3.72;3.42;;;17.20;99.90;;;;;;6038298;23;20023;-80
2022/08/16 06:29:39;;;;;;;9.68;3.90;;;17.20;99.90;;;;;;6040142;23;20034;-80
2022/08/16 06:32:10;;;;;;;3.28;2.30;;;17.20;99.90;;;;;;6092458;23;20014;-80
2022/08/16 06:34:54;;;;;;;2.22;2.05;;;17.30;99.90;;;;;;6014077;23;20026;-80
2022/08/16 06:37:32;;;;;;;3.00;2.70;;;17.30;99.90;;;;;;6064410;23;20037;-80
2022/08/16 06:40:07;;;;;;;2.30;2.10;;;17.40;99.90;;;;;;6071717;23;20022;-79
2022/08/16 06:42:46;;;;;;;2.45;2.20;;;17.40;99.90;;;;;;6058995;23;20027;-82
2022/08/16 06:46:01;;;;;;;3.40;2.58;;;17.40;99.90;;;;;;6078152;22;20037;-82
2022/08/16 06:48:31;;;;;;;3.20;2.40;;;17.40;99.90;;;;;;6060248;23;20033;-81
2022/08/16 06:51:04;;;;;;;2.95;2.65;;;17.40;99.90;;;;;;6083207;23;20034;-82
2022/08/16 06:53:35;;;;;;;3.08;2.22;;;17.60;99.90;;;;;;6183470;23;20038;-83
2022/08/16 06:56:06;;;;;;;4.60;1.90;;;18.00;99.90;;;;;;6010869;23;20023;-84
2022/08/16 06:59:10;;;;;;;2.92;2.65;;;18.30;99.90;;;;;;6056127;23;20038;-83
2022/08/16 07:01:48;;;;;;;2.28;2.15;;;18.80;99.90;;;;;;6062773;23;20235;-82
2022/08/16 07:04:21;;;;;;;1.58;1.45;;;19.00;99.90;;;;;;6067687;23;20015;-84
2022/08/16 07:07:12;;;;;;;4.97;3.80;;;19.10;99.90;;;;;;6057021;23;20042;-84
2022/08/16 07:09:41;;;;;;;2.25;2.05;;;19.30;99.90;;;;;;6087068;22;20023;-83
2022/08/16 07:12:09;;;;;;;1.92;1.80;;;19.60;99.90;;;;;;6035783;23;20026;-81
2022/08/16 07:14:40;;;;;;;1.95;1.63;;;19.80;99.90;;;;;;6062006;23;20023;-82
2022/08/16 07:17:12;;;;;;;2.20;1.83;;;20.00;99.90;;;;;;6034256;23;20033;-83
2022/08/16 07:19:48;;;;;;;2.13;2.00;;;20.10;99.90;;;;;;6012116;23;20023;-83
2022/08/16 07:22:50;;;;;;;2.70;2.50;;;20.00;99.90;;;;;;6056661;23;20027;-83
2022/08/16 07:25:35;;;;;;;1.95;1.75;;;20.20;99.90;;;;;;6086949;22;20038;-82
2022/08/16 07:28:11;;;;;;;2.58;1.33;;;20.40;99.90;;;;;;6033862;23;20023;-82
2022/08/16 07:30:51;;;;;;;1.88;1.60;;;20.60;99.90;;;;;;6082894;23;20030;-82
2022/08/16 07:33:33;;;;;;;1.83;1.45;;;20.50;99.90;;;;;;6088524;23;20027;-82
2022/08/16 07:36:25;;;;;;;1.30;1.20;;;20.80;99.90;;;;;;6048999;23;20022;-81
2022/08/16 07:39:03;;;;;;;;;;;21.10;99.90;;;;;;6057861;23;20030;-82
2022/08/16 07:41:43;;;;;;;1.63;1.40;;;21.10;99.90;;;;;;6087693;23;19917;-82
2022/08/16 07:44:11;;;;;;;1.20;1.10;;;21.40;99.90;;;;;;6068649;23;20019;-83
2022/08/16 07:46:46;;;;;;;3.67;1.60;;;21.90;99.90;;;;;;6057858;23;20066;-82
2022/08/16 07:49:22;;;;;;;1.80;1.70;;;21.50;99.90;;;;;;6035470;23;20031;-81
2022/08/16 07:51:51;;;;;;;5.00;1.35;;;21.60;99.90;;;;;;6081661;23;20014;-82
2022/08/16 07:54:25;;;;;;;3.08;1.80;;;22.10;99.90;;;;;;6059897;23;20034;-83
2022/08/16 07:57:01;;;;;;;3.03;1.70;;;22.70;99.90;;;;;;6081499;22;20022;-81
2022/08/16 07:59:30;;;;;;;1.95;1.45;;;23.10;99.90;;;;;;6058137;23;20034;-82
2022/08/16 08:02:13;;;;;;;2.00;1.90;;;22.90;99.90;;;;;;6033845;23;20057;-83
2022/08/16 08:04:49;;;;;;;5.82;1.42;;;22.60;99.90;;;;;;6057461;22;20522;-82
2022/08/16 08:07:17;;;;;;;2.80;1.95;;;22.40;99.90;;;;;;6043288;23;20027;-82
2022/08/16 08:09:48;;;;;;;1.80;1.65;;;22.30;99.90;;;;;;6062072;23;20038;-81
2022/08/16 08:12:18;;;;;;;1.27;1.05;;;22.30;99.90;;;;;;6067535;23;20075;-82
2022/08/16 08:15:15;;;;;;;1.63;1.52;;;22.20;99.90;;;;;;6014400;23;20030;-82
2022/08/16 08:17:53;;;;;;;1.73;1.42;;;22.20;99.90;;;;;;6035136;23;20030;-83
2022/08/16 08:20:28;;;;;;;1.45;1.35;;;22.10;99.90;;;;;;6044976;23;20190;-81
2022/08/16 08:23:01;;;;;;;3.17;1.80;;;22.10;99.90;;;;;;6081472;22;20046;-82
2022/08/16 08:25:39;;;;;;;1.52;1.42;;;22.20;99.90;;;;;;6087516;23;20058;-82
2022/08/16 08:28:21;;;;;;;1.42;1.33;;;22.20;99.90;;;;;;6091597;23;20015;-82
2022/08/16 08:30:53;;;;;;;1.63;1.52;;;22.40;99.90;;;;;;6058988;23;20023;-82
2022/08/16 08:33:31;;;;;;;1.50;1.40;;;22.20;99.90;;;;;;6013211;23;20468;-82
2022/08/16 08:36:06;;;;;;;1.20;1.15;;;22.40;99.90;;;;;;6035920;23;20026;-82
2022/08/16 08:38:36;;;;;;;2.53;2.33;;;22.40;99.90;;;;;;6036216;23;20033;-84
2022/08/16 08:41:16;;;;;;;6.65;1.55;;;22.60;99.90;;;;;;6068359;23;20022;-82
2022/08/16 08:43:54;;;;;;;1.92;1.73;;;22.80;99.90;;;;;;6035846;23;20568;-82
2022/08/16 08:46:24;;;;;;;2.15;1.67;;;22.50;99.90;;;;;;6060971;22;20045;-82
2022/08/16 08:48:55;;;;;;;1.98;1.88;;;22.50;99.90;;;;;;6027229;23;20019;-85
2022/08/16 08:51:27;;;;;;;2.03;1.80;;;22.70;99.90;;;;;;6096106;23;20022;-82
2022/08/16 08:54:07;;;;;;;;;;;22.90;99.90;;;;;;6060673;23;20027;-83
2022/08/16 08:56:40;;;;;;;2.47;2.28;;;22.90;99.90;;;;;;6083254;23;20347;-84
2022/08/16 08:59:45;;;;;;;3.35;1.58;;;22.90;99.90;;;;;;6107704;23;20042;-83
2022/08/16 09:03:16;;;;;;;2.03;1.83;;;22.90;99.90;;;;;;6060665;23;20031;-85
2022/08/16 09:05:45;;;;;;;1.60;1.50;;;22.80;99.90;;;;;;6041119;23;20729;-83
2022/08/16 09:08:19;;;;;;;3.28;1.92;;;23.00;99.90;;;;;;6069814;23;20330;-85
2022/08/16 09:10:58;;;;;;;2.97;2.13;;;23.10;99.90;;;;;;6036234;22;20046;-86
2022/08/16 09:13:31;;;;;;;3.38;1.90;;;22.80;99.90;;;;;;6058511;23;20046;-86
2022/08/16 09:16:00;;;;;;;;;;;22.80;99.90;;;;;;6092542;23;20019;-87
2022/08/16 09:18:31;;;;;;;8.23;2.20;;;22.90;99.90;;;;;;6076911;22;19917;-86
2022/08/16 09:21:05;;;;;;;1.83;1.73;;;23.00;99.90;;;;;;6092543;23;20370;-84
2022/08/16 09:23:38;;;;;;;6.60;2.05;;;23.10;99.90;;;;;;6058949;23;20350;-87
2022/08/16 09:26:14;;;;;;;2.47;1.50;;;23.20;99.90;;;;;;6062644;23;20038;-88
2022/08/16 09:29:05;;;;;;;2.05;1.50;;;23.10;99.90;;;;;;6090052;23;20358;-84
2022/08/16 09:31:46;;;;;;;5.38;2.13;;;23.20;99.90;;;;;;6068171;23;20034;-85
2022/08/16 09:34:20;;;;;;;2.85;2.03;;;23.20;99.90;;;;;;6062199;22;20027;-85
2022/08/16 09:36:48;;;;;;;2.20;1.98;;;23.20;99.90;;;;;;6081123;23;20022;-85
2022/08/16 09:39:21;;;;;;;3.40;2.10;;;23.40;99.90;;;;;;6058862;23;20029;-82
2022/08/16 09:41:50;;;;;;;2.78;2.28;;;23.70;99.90;;;;;;6057374;23;20036;-86
2022/08/16 09:44:29;;;;;;;1.80;1.67;;;23.70;99.90;;;;;;6036047;23;20019;-86
2022/08/16 09:47:18;;;;;;;3.05;2.80;;;23.70;99.90;;;;;;6091219;23;20038;-85
2022/08/16 09:49:55;;;;;;;2.38;1.90;;;23.60;99.90;;;;;;6121161;23;20796;-84
2022/08/16 09:52:49;;;;;;;2.80;2.03;;;23.80;99.90;;;;;;6222104;23;20020;-85
2022/08/16 09:55:22;;;;;;;3.17;2.50;;;24.00;99.90;;;;;;6193838;23;20024;-84
2022/08/16 09:57:51;;;;;;;4.40;2.42;;;23.90;98.80;;;;;;6215556;23;20028;-84
2022/08/16 10:04:01;;;;;;;2.85;1.95;;;23.70;99.80;;;;;;6214114;23;20020;-85
2022/08/16 10:06:32;;;;;;;3.50;2.17;;;23.80;99.90;;;;;;6215082;23;20020;-86
2022/08/16 10:09:12;;;;;;;3.63;2.72;;;24.10;99.90;;;;;;6158307;23;20016;-87
2022/08/16 10:16:35;;;;;;;2.35;2.15;;;24.20;99.10;;;;;;6117801;23;20029;-88
2022/08/16 10:19:31;;;;;;;2.03;1.92;;;24.00;99.90;;;;;;6081670;23;20054;-85
2022/08/16 10:21:59;;;;;;;17.80;2.90;;;24.30;99.90;;;;;;6039088;23;20035;-85
2022/08/16 10:24:33;;;;;;;2.53;2.33;;;24.60;99.80;;;;;;6082255;23;20025;-86
2022/08/16 10:27:01;;;;;;;2.45;1.85;;;24.60;99.90;;;;;;6059716;23;20038;-86
2022/08/16 10:30:19;;;;;;;3.58;2.30;;;24.60;99.90;;;;;;6061536;23;20072;-84
2022/08/16 10:32:55;;;;;;;2.72;2.42;;;24.30;98.90;;;;;;6079653;22;20026;-86
2022/08/16 10:38:55;;;;;;;2.55;1.88;;;24.30;98.30;;;;;;6113206;22;20029;-85
2022/08/16 10:41:35;;;;;;;6.88;2.15;;;24.20;97.60;;;;;;6115965;22;20030;-88
2022/08/16 10:44:14;;;;;;;2.72;2.53;;;24.40;98.70;;;;;;6093895;23;20025;-86
2022/08/16 10:47:00;;;;;;;2.42;2.22;;;24.80;98.40;;;;;;6066650;23;20465;31
2022/08/16 10:49:35;;;;;;;8.98;2.40;;;25.00;98.50;;;;;;6100815;23;20036;-86
2022/08/16 10:52:07;;;;;;;2.72;2.22;;;25.20;97.50;;;;;;6001319;23;20024;-87
2022/08/16 10:54:46;;;;;;;5.47;2.10;;;25.30;96.20;;;;;;6039515;23;20042;-87
2022/08/16 10:58:14;;;;;;;2.22;2.03;;;25.40;96.80;;;;;;6064105;22;20568;-87
2022/08/16 11:00:44;;;;;;;6.50;2.13;;;25.20;95.20;;;;;;6037655;23;20020;-87
2022/08/16 11:03:48;;;;;;;2.28;2.08;;;25.20;95.00;;;;;;6042609;23;20027;-88
2022/08/16 11:07:23;;;;;;;2.65;2.17;;;25.20;96.00;;;;;;6083807;23;20746;-88
2022/08/16 11:10:14;;;;;;;2.60;2.00;;;25.10;96.60;;;;;;6069033;23;20370;-86
2022/08/16 11:13:05;;;;;;;2.92;2.53;;;25.20;97.60;;;;;;6071020;23;20027;-89
2022/08/16 11:16:05;;;;;;;3.53;2.90;;;25.50;96.20;;;;;;6114776;23;20687;-87
2022/08/16 11:18:55;;;;;;;2.03;1.75;;;25.80;96.10;;;;;;6084564;23;20026;-84
2022/08/16 11:21:35;;;;;;;2.08;1.92;;;26.00;94.40;;;;;;6089348;23;20030;-85
2022/08/16 11:24:24;;;;;;;1.70;1.60;;;25.70;93.40;;;;;;6100168;23;20022;-84
2022/08/16 11:27:18;;;;;;;4.10;2.00;;;25.20;94.40;;;;;;6065023;23;20034;-82
2022/08/16 11:29:56;;;;;;;2.42;2.20;;;25.30;95.40;;;;;;6091143;23;20030;-85
2022/08/16 11:32:26;;;;;;;3.05;2.38;;;25.70;95.10;;;;;;6029648;23;20030;-83
2022/08/16 11:35:03;;;;;;;17.05;2.50;;;26.00;95.00;;;;;;6030571;23;20035;-84
2022/08/16 11:37:49;;;;;;;2.75;2.05;;;26.10;94.70;;;;;;6029083;22;20027;-81
2022/08/16 11:40:45;;;;;;;11.68;2.35;;;26.20;93.50;;;;;;6038055;23;20020;-78
2022/08/16 11:43:29;;;;;;;8.13;2.15;;;26.20;92.80;;;;;;6059040;23;20038;-78
2022/08/16 11:46:00;;;;;;;2.90;2.63;;;26.10;93.40;;;;;;6034150;23;20036;-86
2022/08/16 11:48:55;;;;;;;5.50;2.78;;;25.70;93.30;;;;;;6032208;23;20023;-81
2022/08/16 11:51:23;;;;;;;1.92;1.83;;;25.70;92.50;;;;;;6040637;23;20038;-87
2022/08/16 11:53:51;;;;;;;3.47;2.10;;;25.70;93.00;;;;;;6058032;23;20032;-88
2022/08/16 11:56:20;;;;;;;3.88;2.05;;;25.60;92.10;;;;;;6040729;23;20027;-84
2022/08/16 11:59:08;;;;;;;4.20;3.55;;;25.40;92.30;;;;;;6047732;23;20027;-81
2022/08/16 12:01:39;;;;;;;2.70;1.88;;;25.50;93.50;;;;;;6036387;23;20038;-83
2022/08/16 12:04:22;;;;;;;3.53;2.45;;;25.70;93.60;;;;;;6053371;23;20027;-88
2022/08/16 12:06:52;;;;;;;4.95;2.30;;;26.10;92.70;;;;;;6028552;23;20027;-86
2022/08/16 12:09:22;;;;;;;4.72;2.17;;;26.10;92.40;;;;;;6037826;23;20031;-85
2022/08/16 12:11:56;;;;;;;2.35;2.15;;;26.10;92.80;;;;;;6063074;23;20037;-85
2022/08/16 12:14:27;;;;;;;2.25;1.90;;;26.20;92.70;;;;;;6031430;23;20023;-81
2022/08/16 12:17:04;;;;;;;2.83;2.55;;;26.50;92.40;;;;;;6038666;23;20343;-80
2022/08/16 12:19:37;;;;;;;4.43;1.70;;;26.70;92.70;;;;;;6040418;23;20659;-81
2022/08/16 12:22:07;;;;;;;2.47;1.60;;;26.90;91.40;;;;;;6058827;23;20032;-82
2022/08/16 12:24:48;;;;;;;4.72;2.25;;;27.00;91.70;;;;;;6127204;23;20019;-84
2022/08/16 12:27:22;;;;;;;2.70;2.50;;;27.00;89.70;;;;;;6039454;23;20019;-84
2022/08/16 12:30:20;;;;;;;2.20;2.05;;;26.90;91.30;;;;;;5127816;27;20690;-82
2022/08/16 12:33:00;;;;;;;3.53;1.75;;;26.70;89.70;;;;;;5081552;28;20052;-83
2022/08/16 12:35:32;;;;;;;26.00;3.72;;;26.40;89.70;;;;;;5083019;28;20102;-84
2022/08/16 12:38:00;;;;;;;1.85;1.75;;;26.60;91.70;;;;;;5088063;28;20055;-83
2022/08/16 12:40:50;;;;;;;3.72;2.53;;;27.10;90.70;;;;;;5109080;28;20044;-82
2022/08/16 12:43:30;;;;;;;2.97;1.95;;;27.30;86.40;;;;;;5107157;28;20047;-82
2022/08/16 12:45:58;;;;;;;3.25;1.92;;;26.80;90.40;;;;;;5106394;28;20043;-82
2022/08/16 12:51:24;;;;;;;;;;;27.30;90.10;;;;;;5108284;27;20400;-83
2022/08/16 12:54:03;;;;;;;2.20;2.00;;;27.60;88.40;;;;;;5088474;27;19931;-82
2022/08/16 12:56:37;;;;;;;2.25;2.05;;;27.70;89.10;;;;;;5098742;27;20047;-83
2022/08/16 12:59:30;;;;;;;2.05;1.52;;;27.70;90.00;;;;;;5089844;27;20055;-83
2022/08/16 13:02:21;;;;;;;1.92;1.73;;;27.80;89.60;;;;;;5107369;27;20043;-84
2022/08/16 13:05:00;;;;;;;1.88;1.77;;;28.00;88.60;;;;;;5122355;27;20794;-82
2022/08/16 13:07:30;;;;;;;3.33;1.92;;;27.90;84.10;;;;;;5109298;28;20518;-82
2022/08/16 13:10:14;;;;;;;2.17;1.90;;;27.60;86.50;;;;;;5143279;27;20047;-83
2022/08/16 13:13:04;;;;;;;3.08;2.65;;;27.60;86.20;;;;;;5111724;28;20062;-82
2022/08/16 13:15:32;;;;;;;3.33;1.80;;;27.80;87.60;;;;;;5125169;27;20058;-80
2022/08/16 13:18:24;;;;;;;2.08;1.88;;;28.00;86.60;;;;;;5109005;28;20046;-82
2022/08/16 13:21:43;;;;;;;5.85;2.67;;;28.10;86.60;;;;;;5133693;27;20059;-83
2022/08/16 13:25:00;;;;;;;5.18;2.53;;;28.10;88.90;;;;;;5107647;27;20047;-83
2022/08/16 13:27:38;;;;;;;2.95;2.50;;;28.40;87.60;;;;;;5067724;28;20059;-82
2022/08/16 13:30:29;;;;;;;1.65;1.55;;;28.50;84.20;;;;;;5140826;27;20050;-83
2022/08/16 13:33:08;;;;;;;1.80;1.70;;;28.40;83.90;;;;;;5146177;27;20055;-82
2022/08/16 13:35:42;;;;;;;3.45;2.85;;;28.30;86.10;;;;;;5129495;27;20055;-83
2022/08/16 13:38:13;;;;;;;6.65;3.08;;;28.40;86.30;;;;;;5126441;27;20051;-81
2022/08/16 13:40:54;;;;;;;2.22;2.08;;;28.60;86.50;;;;;;5102036;28;20059;-85
2022/08/16 13:43:27;;;;;;;6.60;2.50;;;28.60;85.30;;;;;;5095530;28;20084;-84
2022/08/16 13:46:08;;;;;;;2.72;1.77;;;28.70;84.30;;;;;;5086359;27;20051;-87
2022/08/16 13:48:40;;;;;;;2.22;1.95;;;28.70;84.90;;;;;;5080624;27;20067;-85
2022/08/16 13:51:17;;;;;;;2.15;2.05;;;28.70;86.10;;;;;;5123616;27;20036;-87
2022/08/16 13:53:50;;;;;;;1.85;1.75;;;28.60;83.30;;;;;;5114628;27;20039;-84
2022/08/16 13:56:32;;;;;;;2.60;2.40;;;28.40;88.80;;;;;;5132404;27;20047;-86
2022/08/16 13:59:07;;;;;;;3.72;2.15;;;28.40;84.70;;;;;;5086797;28;20062;-84
2022/08/16 14:01:49;;;;;;;8.40;2.08;;;28.60;86.20;;;;;;5112111;28;20043;-85